DLH14K EDDF-ELLX
Flight info
| Callsign | DLH14K |
|---|---|
| Flight time | 0h 24m |
| Altitude | 16000 |
| Route | SOBRA2L SOBRA Y180 BITBU Z110 BETEX |
| Aircraft | B748/H-SDE3FGHIM1M2RWXY/LB1 |
Departure
| Time | 2026-04-16 13:25 |
|---|---|
| Airport | Frankfurt Main Airport (EDDF) |
Arrival
| Time | 2026-04-16 13:50 |
|---|---|
| Airport | Luxembourg-Findel International Airport (ELLX) |
| Time | Latitude | Longitude | Altitude | Speed | Heading |
|---|---|---|---|---|---|
| 2026-04-16 13:04 | 50.04724 | 8.56276 | 366 ft | 0 kts | 340° |
| 2026-04-16 13:10 | 50.04705 | 8.56287 | 366 ft | 4 kts | 339° |
| 2026-04-16 13:10 | 50.04681 | 8.56303 | 366 ft | 4 kts | 334° |
| 2026-04-16 13:10 | 50.04658 | 8.56323 | 366 ft | 4 kts | 316° |
| 2026-04-16 13:11 | 50.04647 | 8.56351 | 366 ft | 3 kts | 253° |
| 2026-04-16 13:11 | 50.04645 | 8.56346 | 366 ft | 4 kts | 249° |
| 2026-04-16 13:11 | 50.04636 | 8.56307 | 366 ft | 4 kts | 249° |
| 2026-04-16 13:11 | 50.04627 | 8.56268 | 366 ft | 4 kts | 249° |
| 2026-04-16 13:12 | 50.04617 | 8.56228 | 368 ft | 4 kts | 249° |
| 2026-04-16 13:12 | 50.04608 | 8.56189 | 370 ft | 4 kts | 250° |
| 2026-04-16 13:12 | 50.04598 | 8.56149 | 371 ft | 4 kts | 250° |
| 2026-04-16 13:12 | 50.04589 | 8.56110 | 369 ft | 4 kts | 250° |
| 2026-04-16 13:13 | 50.04582 | 8.56080 | 370 ft | 0 kts | 250° |
| 2026-04-16 13:17 | 50.04578 | 8.56064 | 370 ft | 3 kts | 250° |
| 2026-04-16 13:18 | 50.04570 | 8.56029 | 368 ft | 4 kts | 249° |
| 2026-04-16 13:18 | 50.04561 | 8.55997 | 367 ft | 2 kts | 243° |
| 2026-04-16 13:18 | 50.04555 | 8.55985 | 372 ft | 1 kts | 228° |
| 2026-04-16 13:18 | 50.04543 | 8.55972 | 368 ft | 4 kts | 213° |
| 2026-04-16 13:19 | 50.04490 | 8.55939 | 371 ft | 13 kts | 197° |
| 2026-04-16 13:19 | 50.04380 | 8.55913 | 370 ft | 17 kts | 169° |
| 2026-04-16 13:19 | 50.04263 | 8.55962 | 364 ft | 11 kts | 186° |
| 2026-04-16 13:19 | 50.04234 | 8.55912 | 365 ft | 6 kts | 249° |
| 2026-04-16 13:20 | 50.04199 | 8.55770 | 368 ft | 21 kts | 249° |
| 2026-04-16 13:20 | 50.04133 | 8.55494 | 364 ft | 34 kts | 249° |
| 2026-04-16 13:20 | 50.04038 | 8.55104 | 369 ft | 43 kts | 250° |
| 2026-04-16 13:20 | 50.03934 | 8.54655 | 364 ft | 45 kts | 249° |
| 2026-04-16 13:21 | 50.03806 | 8.54235 | 365 ft | 32 kts | 233° |
| 2026-04-16 13:21 | 50.03755 | 8.54036 | 362 ft | 20 kts | 252° |
| 2026-04-16 13:21 | 50.03708 | 8.53835 | 359 ft | 20 kts | 249° |
| 2026-04-16 13:21 | 50.03675 | 8.53701 | 356 ft | 20 kts | 249° |
| 2026-04-16 13:22 | 50.03603 | 8.53425 | 358 ft | 21 kts | 247° |
| 2026-04-16 13:22 | 50.03551 | 8.53215 | 352 ft | 20 kts | 254° |
| 2026-04-16 13:22 | 50.03509 | 8.53021 | 356 ft | 18 kts | 249° |
| 2026-04-16 13:22 | 50.03462 | 8.52836 | 355 ft | 18 kts | 246° |
| 2026-04-16 13:23 | 50.03415 | 8.52661 | 353 ft | 13 kts | 246° |
| 2026-04-16 13:23 | 50.03379 | 8.52604 | 352 ft | 4 kts | 213° |
| 2026-04-16 13:23 | 50.03367 | 8.52600 | 353 ft | 3 kts | 192° |
| 2026-04-16 13:23 | 50.03339 | 8.52593 | 351 ft | 3 kts | 182° |
| 2026-04-16 13:24 | 50.03333 | 8.52593 | 351 ft | 0 kts | 179° |
| 2026-04-16 13:24 | 50.03317 | 8.52593 | 350 ft | 15 kts | 180° |
| 2026-04-16 13:24 | 50.02829 | 8.52596 | 345 ft | 128 kts | 179° |
| 2026-04-16 13:25 | 50.02023 | 8.52608 | 396 ft | 189 kts | 180° |
| 2026-04-16 13:25 | 50.00436 | 8.52710 | 682 ft | 227 kts | 176° |
| 2026-04-16 13:25 | 49.99031 | 8.52857 | 1657 ft | 215 kts | 177° |
| 2026-04-16 13:25 | 49.97509 | 8.52935 | 2700 ft | 219 kts | 180° |
| 2026-04-16 13:26 | 49.95964 | 8.52985 | 3775 ft | 227 kts | 179° |
| 2026-04-16 13:26 | 49.94368 | 8.53074 | 4928 ft | 232 kts | 180° |
| 2026-04-16 13:26 | 49.92744 | 8.53176 | 6046 ft | 236 kts | 180° |
| 2026-04-16 13:26 | 49.91038 | 8.53279 | 7136 ft | 240 kts | 180° |
| 2026-04-16 13:27 | 49.89404 | 8.53375 | 8134 ft | 243 kts | 180° |
| 2026-04-16 13:27 | 49.87698 | 8.53447 | 9164 ft | 247 kts | 186° |
| 2026-04-16 13:27 | 49.86006 | 8.52793 | 10036 ft | 254 kts | 202° |
| 2026-04-16 13:27 | 49.84300 | 8.51796 | 10647 ft | 271 kts | 203° |
| 2026-04-16 13:28 | 49.82478 | 8.50719 | 11193 ft | 289 kts | 202° |
| 2026-04-16 13:28 | 49.80526 | 8.49620 | 11712 ft | 308 kts | 202° |
| 2026-04-16 13:28 | 49.78536 | 8.48210 | 12229 ft | 322 kts | 218° |
| 2026-04-16 13:28 | 49.76960 | 8.45678 | 12753 ft | 336 kts | 240° |
| 2026-04-16 13:29 | 49.76064 | 8.42283 | 13385 ft | 348 kts | 261° |
| 2026-04-16 13:29 | 49.75999 | 8.38526 | 14249 ft | 355 kts | 279° |
| 2026-04-16 13:29 | 49.76625 | 8.34816 | 15133 ft | 360 kts | 289° |
| 2026-04-16 13:29 | 49.77487 | 8.31132 | 15901 ft | 369 kts | 289° |
| 2026-04-16 13:30 | 49.78307 | 8.27354 | 16201 ft | 371 kts | 285° |
| 2026-04-16 13:30 | 49.78905 | 8.23475 | 16209 ft | 369 kts | 282° |
| 2026-04-16 13:30 | 49.79425 | 8.19586 | 16212 ft | 370 kts | 283° |
| 2026-04-16 13:30 | 49.80036 | 8.15723 | 16221 ft | 369 kts | 284° |
| 2026-04-16 13:31 | 49.80692 | 8.11880 | 16222 ft | 370 kts | 284° |
| 2026-04-16 13:31 | 49.81317 | 8.08018 | 16221 ft | 370 kts | 283° |
| 2026-04-16 13:31 | 49.81914 | 8.04143 | 16219 ft | 369 kts | 283° |
| 2026-04-16 13:31 | 49.82510 | 8.00330 | 16219 ft | 369 kts | 284° |
| 2026-04-16 13:32 | 49.83124 | 7.96469 | 16223 ft | 370 kts | 284° |
| 2026-04-16 13:32 | 49.83737 | 7.92593 | 16221 ft | 370 kts | 283° |
| 2026-04-16 13:32 | 49.84339 | 7.88747 | 16224 ft | 369 kts | 283° |
| 2026-04-16 13:32 | 49.84944 | 7.84862 | 16221 ft | 370 kts | 283° |
| 2026-04-16 13:33 | 49.85548 | 7.80993 | 16222 ft | 370 kts | 283° |
| 2026-04-16 13:33 | 49.86154 | 7.77111 | 16222 ft | 370 kts | 283° |
| 2026-04-16 13:33 | 49.86763 | 7.73239 | 16221 ft | 370 kts | 284° |
| 2026-04-16 13:33 | 49.87367 | 7.69439 | 16219 ft | 370 kts | 283° |
| 2026-04-16 13:34 | 49.87970 | 7.65561 | 16220 ft | 370 kts | 283° |
| 2026-04-16 13:34 | 49.88556 | 7.61704 | 16188 ft | 359 kts | 281° |
| 2026-04-16 13:34 | 49.88676 | 7.58055 | 16097 ft | 324 kts | 262° |
| 2026-04-16 13:34 | 49.88083 | 7.54905 | 15987 ft | 295 kts | 250° |
| 2026-04-16 13:35 | 49.87282 | 7.52040 | 15708 ft | 291 kts | 249° |
| 2026-04-16 13:35 | 49.86562 | 7.49106 | 15367 ft | 290 kts | 255° |
| 2026-04-16 13:35 | 49.86099 | 7.46067 | 14983 ft | 291 kts | 261° |
| 2026-04-16 13:35 | 49.85753 | 7.42982 | 14596 ft | 289 kts | 261° |
| 2026-04-16 13:36 | 49.85351 | 7.39925 | 14223 ft | 287 kts | 258° |
| 2026-04-16 13:36 | 49.84903 | 7.36909 | 13828 ft | 287 kts | 258° |
| 2026-04-16 13:36 | 49.84465 | 7.33903 | 13434 ft | 285 kts | 258° |
| 2026-04-16 13:36 | 49.84046 | 7.30903 | 13062 ft | 284 kts | 258° |
| 2026-04-16 13:37 | 49.83633 | 7.27960 | 12701 ft | 283 kts | 258° |
| 2026-04-16 13:37 | 49.83211 | 7.24994 | 12342 ft | 282 kts | 258° |
| 2026-04-16 13:37 | 49.82788 | 7.22034 | 11985 ft | 281 kts | 258° |
| 2026-04-16 13:37 | 49.82368 | 7.19087 | 11632 ft | 280 kts | 258° |
| 2026-04-16 13:38 | 49.81949 | 7.16146 | 11274 ft | 279 kts | 257° |
| 2026-04-16 13:38 | 49.81529 | 7.13218 | 10924 ft | 276 kts | 257° |
| 2026-04-16 13:38 | 49.81114 | 7.10319 | 10581 ft | 276 kts | 257° |
| 2026-04-16 13:38 | 49.80697 | 7.07421 | 10241 ft | 275 kts | 257° |
| 2026-04-16 13:39 | 49.80283 | 7.04545 | 9879 ft | 273 kts | 257° |
| 2026-04-16 13:39 | 49.79874 | 7.01709 | 9535 ft | 272 kts | 257° |
| 2026-04-16 13:39 | 49.79459 | 6.98840 | 9204 ft | 271 kts | 257° |
| 2026-04-16 13:39 | 49.79049 | 6.96011 | 8872 ft | 270 kts | 257° |
| 2026-04-16 13:40 | 49.78639 | 6.93185 | 8551 ft | 268 kts | 257° |
| 2026-04-16 13:40 | 49.78233 | 6.90387 | 8221 ft | 265 kts | 257° |
| 2026-04-16 13:40 | 49.77835 | 6.87660 | 7894 ft | 251 kts | 257° |
| 2026-04-16 13:40 | 49.77465 | 6.85126 | 7592 ft | 233 kts | 257° |
| 2026-04-16 13:41 | 49.77112 | 6.82702 | 7332 ft | 236 kts | 257° |
| 2026-04-16 13:41 | 49.76756 | 6.80273 | 7046 ft | 229 kts | 257° |
| 2026-04-16 13:41 | 49.76404 | 6.77859 | 6785 ft | 231 kts | 256° |
| 2026-04-16 13:41 | 49.76055 | 6.75479 | 6514 ft | 226 kts | 256° |
| 2026-04-16 13:42 | 49.75700 | 6.73077 | 6254 ft | 227 kts | 256° |
| 2026-04-16 13:42 | 49.75350 | 6.70701 | 5991 ft | 229 kts | 256° |
| 2026-04-16 13:42 | 49.75002 | 6.68340 | 5774 ft | 225 kts | 256° |
| 2026-04-16 13:42 | 49.74660 | 6.66026 | 5670 ft | 227 kts | 256° |
| 2026-04-16 13:43 | 49.74308 | 6.63644 | 5546 ft | 226 kts | 256° |
| 2026-04-16 13:43 | 49.73959 | 6.61289 | 5422 ft | 226 kts | 256° |
| 2026-04-16 13:43 | 49.73608 | 6.58922 | 5300 ft | 229 kts | 256° |
| 2026-04-16 13:43 | 49.73261 | 6.56589 | 5161 ft | 218 kts | 256° |
| 2026-04-16 13:44 | 49.72926 | 6.54338 | 5045 ft | 208 kts | 256° |
| 2026-04-16 13:44 | 49.72617 | 6.52258 | 4914 ft | 190 kts | 257° |
| 2026-04-16 13:44 | 49.72319 | 6.50255 | 4838 ft | 188 kts | 256° |
| 2026-04-16 13:44 | 49.72019 | 6.48252 | 4747 ft | 186 kts | 256° |
| 2026-04-16 13:45 | 49.71748 | 6.46349 | 4544 ft | 178 kts | 255° |
| 2026-04-16 13:45 | 49.71283 | 6.44619 | 4288 ft | 176 kts | 243° |
| 2026-04-16 13:45 | 49.70725 | 6.43004 | 4026 ft | 165 kts | 242° |
| 2026-04-16 13:45 | 49.70157 | 6.41428 | 3824 ft | 171 kts | 241° |
| 2026-04-16 13:46 | 49.69576 | 6.39865 | 3596 ft | 164 kts | 242° |
| 2026-04-16 13:46 | 49.69011 | 6.38337 | 3384 ft | 163 kts | 242° |
| 2026-04-16 13:46 | 49.68475 | 6.36893 | 3163 ft | 146 kts | 242° |
| 2026-04-16 13:46 | 49.67981 | 6.35557 | 2976 ft | 144 kts | 242° |
| 2026-04-16 13:47 | 49.67489 | 6.34233 | 2802 ft | 140 kts | 241° |
| 2026-04-16 13:47 | 49.67003 | 6.32918 | 2610 ft | 142 kts | 241° |
| 2026-04-16 13:47 | 49.66514 | 6.31595 | 2431 ft | 141 kts | 242° |
| 2026-04-16 13:47 | 49.66035 | 6.30288 | 2249 ft | 138 kts | 240° |
| 2026-04-16 13:48 | 49.65556 | 6.28990 | 2064 ft | 140 kts | 242° |
| 2026-04-16 13:48 | 49.65093 | 6.27736 | 1857 ft | 133 kts | 240° |
| 2026-04-16 13:48 | 49.64603 | 6.26436 | 1691 ft | 139 kts | 239° |
| 2026-04-16 13:48 | 49.64135 | 6.25154 | 1480 ft | 136 kts | 239° |
| 2026-04-16 13:49 | 49.63677 | 6.23929 | 1338 ft | 130 kts | 239° |
| 2026-04-16 13:49 | 49.63236 | 6.22717 | 1241 ft | 122 kts | 237° |
| 2026-04-16 13:49 | 49.62859 | 6.21732 | 1226 ft | 95 kts | 240° |
| 2026-04-16 13:49 | 49.62596 | 6.21028 | 1227 ft | 63 kts | 239° |
| 2026-04-16 13:50 | 49.62462 | 6.20671 | 1222 ft | 22 kts | 242° |
| 2026-04-16 13:50 | 49.62458 | 6.20566 | 1222 ft | 3 kts | 297° |
| 2026-04-16 13:50 | 49.62466 | 6.20553 | 1221 ft | 2 kts | 312° |
| 2026-04-16 13:50 | 49.62525 | 6.20490 | 1212 ft | 16 kts | 330° |
| 2026-04-16 13:51 | 49.62566 | 6.20466 | 1208 ft | 3 kts | 352° |
| 2026-04-16 13:51 | 49.62575 | 6.20467 | 1208 ft | 1 kts | 8° |
| 2026-04-16 13:51 | 49.62592 | 6.20475 | 1208 ft | 5 kts | 17° |
| 2026-04-16 13:51 | 49.62615 | 6.20498 | 1207 ft | 2 kts | 46° |
| 2026-04-16 13:52 | 49.62645 | 6.20546 | 1207 ft | 11 kts | 45° |
| 2026-04-16 13:52 | 49.62714 | 6.20639 | 1206 ft | 14 kts | 36° |
| 2026-04-16 13:52 | 49.62783 | 6.20733 | 1206 ft | 14 kts | 49° |
| 2026-04-16 13:52 | 49.62830 | 6.20844 | 1206 ft | 12 kts | 66° |
| 2026-04-16 13:53 | 49.62872 | 6.20983 | 1206 ft | 16 kts | 62° |
| 2026-04-16 13:53 | 49.62930 | 6.21157 | 1206 ft | 21 kts | 63° |
| 2026-04-16 13:53 | 49.62992 | 6.21367 | 1207 ft | 20 kts | 65° |
| 2026-04-16 13:53 | 49.63039 | 6.21526 | 1207 ft | 16 kts | 65° |
| 2026-04-16 13:54 | 49.63086 | 6.21676 | 1207 ft | 15 kts | 64° |
| 2026-04-16 13:54 | 49.63138 | 6.21839 | 1208 ft | 19 kts | 64° |
| 2026-04-16 13:54 | 49.63202 | 6.22042 | 1208 ft | 23 kts | 64° |
| 2026-04-16 13:54 | 49.63272 | 6.22278 | 1209 ft | 26 kts | 65° |
| 2026-04-16 13:55 | 49.63359 | 6.22544 | 1209 ft | 29 kts | 61° |
| 2026-04-16 13:55 | 49.63449 | 6.22785 | 1209 ft | 24 kts | 58° |
| 2026-04-16 13:55 | 49.63492 | 6.22850 | 1209 ft | 2 kts | 18° |
| 2026-04-16 13:55 | 49.63504 | 6.22850 | 1208 ft | 3 kts | 1° |
| 2026-04-16 13:56 | 49.63528 | 6.22844 | 1207 ft | 2 kts | 334° |
| 2026-04-16 13:56 | 49.63560 | 6.22814 | 1207 ft | 10 kts | 328° |
| 2026-04-16 13:56 | 49.63624 | 6.22750 | 1206 ft | 5 kts | 317° |
| 2026-04-16 13:56 | 49.63631 | 6.22730 | 1206 ft | 1 kts | 295° |
| 2026-04-16 13:57 | 49.63631 | 6.22716 | 1206 ft | 2 kts | 268° |
| 2026-04-16 13:57 | 49.63626 | 6.22698 | 1206 ft | 3 kts | 242° |
| 2026-04-16 13:57 | 49.63605 | 6.22643 | 1206 ft | 6 kts | 238° |
| 2026-04-16 13:58 | 49.63600 | 6.22630 | 1206 ft | 0 kts | 237° |